Time;durP1;ratioP1;P1;durP2;ratioP2;P2;SDS_P1;SDS_P2;PMS_P1;PMS_P2;Temp;Humidity;BMP_temperature;BMP_pressure;BME280_temperature;BME280_humidity;BME280_pressure;Samples;Min_cycle;Max_cycle;Signal;HPM_P1;HPM_P2
2022/09/23 00:01:25;;;;;;;20.08;11.52;;;;;;;6.02;100.00;101024.00;5036050;28;20029;-77
2022/09/23 00:03:50;;;;;;;21.45;12.20;;;;;;;5.90;100.00;101016.19;5034962;28;20045;-77
2022/09/23 00:06:23;;;;;;;23.40;12.43;;;;;;;5.87;100.00;101017.09;5018468;28;20029;-77
2022/09/23 00:08:49;;;;;;;20.20;11.20;;;;;;;5.88;100.00;101015.84;5067665;28;20479;-76
2022/09/23 00:11:25;;;;;;;25.38;12.63;;;;;;;5.82;100.00;101010.72;5033266;28;20029;-77
2022/09/23 00:13:54;;;;;;;24.17;10.98;;;;;;;5.83;100.00;101008.69;5032462;28;20071;-76
2022/09/23 00:16:25;;;;;;;23.70;11.63;;;;;;;5.82;100.00;101007.88;4999949;28;20538;-77
2022/09/23 00:18:51;;;;;;;22.02;12.65;;;;;;;5.77;100.00;101005.56;5016078;28;20021;-77
2022/09/23 00:21:17;;;;;;;19.80;11.63;;;;;;;5.72;100.00;101003.25;5032493;28;20482;-76
2022/09/23 00:23:43;;;;;;;20.38;10.90;;;;;;;5.72;100.00;101005.28;5032643;28;20029;-75
2022/09/23 00:26:11;;;;;;;21.42;12.32;;;;;;;5.71;100.00;101003.69;5033263;28;20021;-75
2022/09/23 00:28:37;;;;;;;22.77;12.25;;;;;;;5.68;100.00;101004.59;5066322;28;20021;-76
2022/09/23 00:31:08;;;;;;;23.88;12.18;;;;;;;5.68;100.00;100999.72;5032145;28;20033;-77
2022/09/23 00:33:33;;;;;;;24.60;13.90;;;;;;;5.64;100.00;101001.03;5048556;28;20129;-78
2022/09/23 00:36:04;;;;;;;23.00;11.90;;;;;;;5.63;100.00;100999.44;5032112;28;20422;-77
2022/09/23 00:38:29;;;;;;;28.17;12.52;;;;;;;5.60;100.00;101003.94;5048801;28;20057;-76
2022/09/23 00:40:55;;;;;;;24.48;11.52;;;;;;;5.53;100.00;100989.97;5031882;28;20459;-77
2022/09/23 00:43:45;;;;;;;26.33;11.85;;;;;;;5.55;100.00;100995.97;5065818;28;20025;-77
2022/09/23 00:46:15;;;;;;;22.60;12.85;;;;;;;5.53;100.00;100994.81;5050314;28;20036;-76
2022/09/23 00:48:41;;;;;;;25.65;12.55;;;;;;;5.53;100.00;100992.00;5034021;28;20493;-76
2022/09/23 00:51:08;;;;;;;23.20;11.82;;;;;;;5.49;100.00;100989.25;5033836;28;20572;-78
2022/09/23 00:53:34;;;;;;;21.95;13.52;;;;;;;5.50;100.00;100979.50;5017218;28;20029;-76
2022/09/23 00:56:02;;;;;;;22.65;12.18;;;;;;;5.50;100.00;100979.50;5033798;28;20025;-79
2022/09/23 00:58:31;;;;;;;27.48;13.45;;;;;;;5.49;100.00;100980.75;5033812;28;20112;-78
2022/09/23 01:00:58;;;;;;;26.65;12.65;;;;;;;5.44;100.00;100971.97;5033418;28;20025;-77
2022/09/23 01:03:24;;;;;;;22.40;12.18;;;;;;;5.46;100.00;100984.44;5033265;28;20033;-76
2022/09/23 01:05:50;;;;;;;20.33;12.23;;;;;;;5.44;100.00;100974.81;5033650;28;20029;-77
2022/09/23 01:08:16;;;;;;;20.45;12.10;;;;;;;5.42;100.00;100980.91;5033394;28;20037;-76
2022/09/23 01:11:19;;;;;;;26.73;12.48;;;;;;;5.39;100.00;100976.13;5033363;28;20044;-76
2022/09/23 01:14:06;;;;;;;22.85;13.02;;;;;;;5.37;100.00;100978.59;5066561;28;20055;-77
2022/09/23 01:16:47;;;;;;;25.67;13.50;;;;;;;5.32;100.00;100968.59;5034712;28;20037;-77
2022/09/23 01:19:37;;;;;;;28.17;14.27;;;;;;;5.35;100.00;100979.03;5033940;28;20033;-77
2022/09/23 01:22:09;;;;;;;24.38;13.20;;;;;;;5.35;100.00;100972.59;5034448;28;20463;-77
2022/09/23 01:24:53;;;;;;;29.77;14.43;;;;;;;5.35;100.00;100983.94;5033020;28;20029;-77
2022/09/23 01:27:32;;;;;;;23.17;13.23;;;;;;;5.36;100.00;100977.00;5066389;28;20544;-77
2022/09/23 01:30:16;;;;;;;23.25;13.15;;;;;;;5.36;100.00;100969.28;5032889;28;20112;-77
2022/09/23 01:33:07;;;;;;;27.63;14.25;;;;;;;5.31;100.00;100969.81;5034641;28;20030;-77
2022/09/23 01:35:37;;;;;;;26.90;12.48;;;;;;;5.32;100.00;100959.28;5033231;28;20039;-76
2022/09/23 01:38:14;;;;;;;25.40;14.20;;;;;;;5.27;100.00;100960.59;5066187;28;20044;-77
2022/09/23 01:40:46;;;;;;;23.23;13.57;;;;;;;5.30;100.00;100964.63;5034668;28;20040;-76
2022/09/23 01:43:19;;;;;;;25.65;13.70;;;;;;;5.26;100.00;100959.00;5034229;28;20455;-76
2022/09/23 01:45:46;;;;;;;29.73;16.33;;;;;;;5.28;100.00;100952.91;5032966;28;20025;-76
2022/09/23 01:48:51;;;;;;;24.00;13.15;;;;;;;5.25;100.00;100959.47;5032942;28;20021;-77
2022/09/23 01:51:19;;;;;;;24.98;14.30;;;;;;;5.23;100.00;100953.44;5029403;28;20037;-77
2022/09/23 01:54:03;;;;;;;26.80;14.38;;;;;;;5.21;100.00;100959.53;5034785;28;20021;-77
2022/09/23 01:56:35;;;;;;;24.08;15.15;;;;;;;5.18;100.00;100954.75;5033399;28;20036;-77
2022/09/23 01:59:09;;;;;;;28.45;14.85;;;;;;;5.15;100.00;100949.19;5033151;28;20410;-78
2022/09/23 02:01:40;;;;;;;24.77;13.43;;;;;;;5.14;100.00;100956.88;5032864;28;20033;-78
2022/09/23 02:04:21;;;;;;;30.95;15.05;;;;;;;5.08;100.00;100952.16;5032840;28;20033;-77
2022/09/23 02:07:02;;;;;;;24.17;15.02;;;;;;;5.05;100.00;100959.50;5032905;28;20026;-78
2022/09/23 02:09:31;;;;;;;28.77;14.35;;;;;;;5.04;100.00;100946.59;5032708;28;20398;-78
2022/09/23 02:12:04;;;;;;;27.00;14.52;;;;;;;5.03;100.00;100956.31;5033041;28;20083;-77
2022/09/23 02:15:03;;;;;;;24.88;14.32;;;;;;;5.03;100.00;100956.31;5032577;28;20049;-78
2022/09/23 02:17:57;;;;;;;22.83;13.55;;;;;;;5.03;100.00;100956.31;5032320;28;20064;-78
2022/09/23 02:20:33;;;;;;;27.50;14.25;;;;;;;5.00;100.00;100951.53;5065389;28;20053;-77
2022/09/23 02:23:11;;;;;;;30.33;14.15;;;;;;;4.98;100.00;100954.00;5048855;28;20053;-77
2022/09/23 02:26:02;;;;;;;27.50;14.98;;;;;;;4.97;100.00;100951.59;5032591;28;20029;-76
2022/09/23 02:28:35;;;;;;;25.75;15.13;;;;;;;4.92;100.00;100956.53;5065536;28;20040;-76
2022/09/23 02:31:10;;;;;;;23.95;13.73;;;;;;;4.93;100.00;100954.50;5033763;28;20026;-77
2022/09/23 02:33:41;;;;;;;30.17;14.10;;;;;;;4.92;100.00;100950.88;5036598;28;20021;-76
2022/09/23 02:36:16;;;;;;;28.48;14.48;;;;;;;4.89;100.00;100951.78;5020040;28;20558;-77
2022/09/23 02:38:45;;;;;;;32.00;16.02;;;;;;;4.93;100.00;100957.34;5036286;28;20031;-76
2022/09/23 02:41:20;;;;;;;25.85;14.82;;;;;;;4.92;100.00;100956.53;5019993;28;20099;-76
2022/09/23 02:44:00;;;;;;;27.23;14.63;;;;;;;4.87;100.00;100956.25;5036105;28;20026;-77
2022/09/23 02:46:25;;;;;;;25.20;14.30;;;;;;;4.80;100.00;100945.91;5069565;28;20037;-76
2022/09/23 02:49:00;;;;;;;27.85;15.50;;;;;;;4.83;100.00;100955.53;5019584;28;20025;-77
2022/09/23 02:51:27;;;;;;;26.23;14.63;;;;;;;4.79;100.00;100943.50;5069715;28;20033;-77
2022/09/23 02:53:55;;;;;;;27.17;14.82;;;;;;;4.79;100.00;100943.50;5019922;28;20053;-77
2022/09/23 02:56:21;;;;;;;26.20;14.93;;;;;;;4.74;100.00;100942.00;5036674;28;20108;-76
2022/09/23 02:58:47;;;;;;;29.67;15.82;;;;;;;4.72;100.00;100949.31;5019550;28;20060;-76
2022/09/23 03:01:17;;;;;;;29.30;15.52;;;;;;;4.75;100.00;100948.44;5019364;28;20140;-76
2022/09/23 03:03:47;;;;;;;24.42;15.27;;;;;;;4.77;100.00;100943.13;5036941;28;20025;-78
2022/09/23 03:06:33;;;;;;;34.17;16.15;;;;;;;4.73;100.00;100937.56;5035657;28;20040;-77
2022/09/23 03:09:03;;;;;;;29.20;15.90;;;;;;;4.71;100.00;100940.00;5069043;28;20029;-77
2022/09/23 03:11:31;;;;;;;32.53;16.05;;;;;;;4.70;100.00;100937.63;5069075;28;20032;-76
2022/09/23 03:14:06;;;;;;;29.38;15.00;;;;;;;4.69;100.00;100936.84;5035671;28;20021;-78
2022/09/23 03:16:55;;;;;;;29.50;16.13;;;;;;;4.67;100.00;100930.00;5035987;28;20025;-78
2022/09/23 03:19:33;;;;;;;33.20;15.65;;;;;;;4.64;100.00;100940.19;5035697;28;20029;-76
2022/09/23 03:22:06;;;;;;;28.67;15.93;;;;;;;4.63;100.00;100929.28;5068458;28;20513;-77
2022/09/23 03:24:33;;;;;;;31.50;17.13;;;;;;;4.63;100.00;100930.09;5035260;28;20021;-77
2022/09/23 03:27:02;;;;;;;26.73;16.33;;;;;;;4.64;100.00;100928.06;5035669;28;20075;-77
2022/09/23 03:29:29;;;;;;;30.73;16.88;;;;;;;4.60;100.00;100918.84;5036066;28;20029;-77
2022/09/23 03:31:55;;;;;;;31.25;16.15;;;;;;;4.59;100.00;100925.75;5035650;28;20064;-77
2022/09/23 03:34:25;;;;;;;28.80;17.05;;;;;;;4.57;100.00;100928.19;5035409;28;20025;-77
2022/09/23 03:37:06;;;;;;;25.50;14.93;;;;;;;4.54;100.00;100923.41;5019035;28;20120;-77
2022/09/23 03:39:36;;;;;;;28.00;15.37;;;;;;;4.50;100.00;100929.97;5020530;28;20036;-77
2022/09/23 03:42:06;;;;;;;29.45;15.90;;;;;;;4.46;100.00;100922.78;5034252;28;20029;-78
2022/09/23 03:44:39;;;;;;;27.33;14.10;;;;;;;4.41;100.00;100911.97;5035136;28;20029;-78
2022/09/23 03:47:05;;;;;;;26.48;15.15;;;;;;;4.45;100.00;100924.00;5019227;28;20474;-77
2022/09/23 03:49:34;;;;;;;28.00;14.63;;;;;;;4.45;100.00;100912.69;5035087;28;20026;-77
2022/09/23 03:52:01;;;;;;;37.30;17.58;;;;;;;4.43;100.00;100913.13;5035185;28;20036;-76
2022/09/23 03:54:28;;;;;;;31.35;16.00;;;;;;;4.37;100.00;100908.41;5034045;28;20021;-78
2022/09/23 03:56:56;;;;;;;27.17;15.95;;;;;;;4.40;100.00;100910.38;5033093;28;20515;-76
2022/09/23 03:59:22;;;;;;;34.47;17.67;;;;;;;4.40;100.00;100904.72;5016305;28;20021;-77
2022/09/23 04:01:49;;;;;;;26.58;15.52;;;;;;;4.34;100.00;100906.44;5033527;28;20120;-77
2022/09/23 04:04:14;;;;;;;28.25;15.55;;;;;;;4.32;100.00;100904.03;5015943;28;20033;-78
2022/09/23 04:06:40;;;;;;;27.00;15.05;;;;;;;4.28;100.00;100902.53;5049128;28;20123;-77
2022/09/23 04:09:05;;;;;;;33.38;15.60;;;;;;;4.21;100.00;100906.31;5032654;28;20082;-77
2022/09/23 04:11:31;;;;;;;33.22;15.60;;;;;;;4.20;100.00;100901.88;5034393;28;20025;-77
2022/09/23 04:13:56;;;;;;;28.45;15.32;;;;;;;4.20;100.00;100899.06;5017917;28;20481;-77
2022/09/23 04:16:21;;;;;;;31.48;16.35;;;;;;;4.25;100.00;100907.03;5034476;28;20037;-77
2022/09/23 04:18:47;;;;;;;27.63;14.95;;;;;;;4.28;100.00;100902.53;5034385;28;20083;-77
2022/09/23 04:21:13;;;;;;;31.77;16.35;;;;;;;4.28;100.00;100900.50;5034172;28;20054;-77
2022/09/23 04:23:38;;;;;;;34.33;17.17;;;;;;;4.28;100.00;100903.34;5034299;28;20095;-77
2022/09/23 04:26:04;;;;;;;33.05;18.52;;;;;;;4.30;100.00;100912.19;5050951;28;20109;-77
2022/09/23 04:28:31;;;;;;;30.45;16.10;;;;;;;4.31;100.00;100913.00;5034275;28;20087;-77
2022/09/23 04:30:57;;;;;;;29.67;15.07;;;;;;;4.28;100.00;100911.00;5033948;28;20029;-77
2022/09/23 04:33:37;;;;;;;31.50;16.42;;;;;;;4.26;100.00;100907.84;5034111;28;20121;-77
2022/09/23 04:36:03;;;;;;;32.42;17.25;;;;;;;4.25;100.00;100907.03;5050776;28;20029;-77
2022/09/23 04:38:29;;;;;;;30.67;16.73;;;;;;;4.22;100.00;100907.88;5034297;28;20030;-78
2022/09/23 04:40:55;;;;;;;32.58;16.92;;;;;;;4.21;100.00;100911.97;5050648;28;20538;-76
2022/09/23 04:43:42;;;;;;;30.00;17.48;;;;;;;4.19;100.00;100910.78;5033580;28;20096;-77
2022/09/23 04:46:10;;;;;;;37.05;17.02;;;;;;;4.18;100.00;100915.66;5035344;28;20037;-77
2022/09/23 04:48:37;;;;;;;29.38;16.88;;;;;;;4.19;100.00;100920.09;5017677;28;20029;-77
2022/09/23 04:51:13;;;;;;;31.90;16.45;;;;;;;4.19;100.00;100916.44;5000917;28;20090;-77
2022/09/23 04:53:59;;;;;;;30.63;17.20;;;;;;;4.11;100.00;100912.19;5032736;28;20028;-76
2022/09/23 04:56:27;;;;;;;31.67;16.70;;;;;;;4.19;100.00;100920.09;5050009;28;20045;-76
2022/09/23 04:58:59;;;;;;;31.25;18.30;;;;;;;4.20;100.00;100920.88;5017278;28;20045;-75
2022/09/23 05:01:29;;;;;;;32.35;18.05;;;;;;;4.22;100.00;100927.69;5033514;28;20482;-76
2022/09/23 05:04:00;;;;;;;38.10;19.00;;;;;;;4.23;100.00;100920.81;5017157;28;20128;-76
2022/09/23 05:06:30;;;;;;;43.47;22.43;;;;;;;4.23;100.00;100925.66;5017766;28;20041;-75
2022/09/23 05:09:09;;;;;;;44.03;21.40;;;;;;;4.17;100.00;100918.94;5033644;28;20033;-76
2022/09/23 05:11:35;;;;;;;35.33;19.02;;;;;;;4.21;100.00;100934.59;5033166;28;20038;-77
2022/09/23 05:14:02;;;;;;;33.20;18.65;;;;;;;4.28;100.00;100928.78;5033332;28;20033;-76
2022/09/23 05:16:28;;;;;;;29.10;17.73;;;;;;;4.33;100.00;100931.13;5033300;28;20437;-75
2022/09/23 05:18:55;;;;;;;35.35;17.77;;;;;;;4.35;100.00;100928.66;5016905;28;20037;-77
2022/09/23 05:21:23;;;;;;;31.90;17.65;;;;;;;4.41;100.00;100934.59;5032733;28;20065;-76
2022/09/23 05:23:53;;;;;;;33.85;17.90;;;;;;;4.42;100.00;100927.69;5049568;28;20030;-77
2022/09/23 05:26:19;;;;;;;32.30;16.45;;;;;;;4.48;100.00;100937.28;5031512;28;20087;-76
2022/09/23 05:28:44;;;;;;;34.80;17.70;;;;;;;4.53;100.00;100927.47;5047801;28;20025;-76
2022/09/23 05:31:15;;;;;;;32.47;17.58;;;;;;;4.61;100.00;100937.44;5031432;28;20035;-75
2022/09/23 05:33:42;;;;;;;34.28;16.70;;;;;;;4.66;100.00;100932.03;5048033;28;20024;-76
2022/09/23 05:36:08;;;;;;;30.83;16.00;;;;;;;4.70;100.00;100932.78;5032841;28;20082;-76
2022/09/23 05:38:34;;;;;;;31.35;17.08;;;;;;;4.73;100.00;100937.56;5034134;28;20029;-76
2022/09/23 05:41:04;;;;;;;26.90;15.55;;;;;;;4.78;100.00;100942.72;5015105;28;20025;-77
2022/09/23 05:43:31;;;;;;;30.67;15.75;;;;;;;4.80;100.00;100934.59;5032614;28;20474;-76
2022/09/23 05:46:02;;;;;;;29.17;15.18;;;;;;;4.84;100.00;100937.31;5031722;28;20394;-76
2022/09/23 05:48:31;;;;;;;25.58;15.15;;;;;;;4.88;100.00;100936.00;5064722;28;20355;-77
2022/09/23 05:50:57;;;;;;;27.40;14.35;;;;;;;4.95;100.00;100935.06;5032872;28;20025;-77
2022/09/23 05:53:22;;;;;;;29.20;15.82;;;;;;;5.68;100.00;100934.50;5032830;28;20037;-77
2022/09/23 05:55:48;;;;;;;27.10;14.52;;;;;;;7.70;100.00;100928.53;5032456;28;20036;-76
2022/09/23 05:58:13;;;;;;;23.48;12.98;;;;;;;10.17;100.00;100925.88;5032059;28;20537;-77
2022/09/23 06:00:40;;;;;;;24.88;12.75;;;;;;;12.46;100.00;100933.09;5030705;28;20053;-76
2022/09/23 06:03:10;;;;;;;40.72;13.98;;;;;;;14.61;100.00;100927.66;5031764;28;20036;-77
2022/09/23 06:05:36;;;;;;;28.13;12.45;;;;;;;16.50;100.00;100928.28;5047114;28;20513;-78
2022/09/23 06:08:01;;;;;;;28.25;14.35;;;;;;;17.93;92.21;100928.16;5032432;28;20029;-77
2022/09/23 06:10:26;;;;;;;22.65;11.68;;;;;;;19.19;78.43;100936.78;5031676;28;20451;-77
2022/09/23 06:12:52;;;;;;;24.60;11.98;;;;;;;20.25;66.65;100944.50;5033282;28;20597;-77
2022/09/23 06:15:17;;;;;;;26.85;12.82;;;;;;;20.84;51.59;100963.84;5065605;28;20022;-75
2022/09/23 06:17:43;;;;;;;29.98;11.90;;;;;;;21.67;49.35;100955.94;5032329;28;20041;-78
2022/09/23 06:20:08;;;;;;;48.38;14.45;;;;;;;22.17;47.86;100965.91;5032363;28;20445;-80
2022/09/23 06:22:34;;;;;;;59.10;17.40;;;;;;;23.23;47.17;100965.22;5028003;28;20033;-78
2022/09/23 06:24:59;;;;;;;53.45;14.57;;;;;;;23.89;44.47;100970.75;5032006;28;20483;-78
2022/09/23 06:27:25;;;;;;;31.35;12.93;;;;;;;24.21;40.90;100979.97;5029493;28;20033;-84
2022/09/23 06:29:56;;;;;;;19.27;11.40;;;;;;;24.44;38.90;100991.84;5035884;28;20025;-79
2022/09/23 06:32:21;;;;;;;23.17;11.93;;;;;;;25.16;38.26;100983.03;5035401;28;20446;-79
2022/09/23 06:34:48;;;;;;;40.15;12.30;;;;;;;25.51;36.97;100992.31;5019729;28;20053;-79
2022/09/23 06:37:15;;;;;;;164.77;29.50;;;;;;;26.04;36.02;101004.06;5015517;28;20124;-77
2022/09/23 06:39:40;;;;;;;111.05;21.88;;;;;;;26.64;35.85;100994.44;5032377;28;20026;-80
2022/09/23 06:42:26;;;;;;;36.17;12.73;;;;;;;26.89;33.09;100994.59;5030957;28;20038;-78
2022/09/23 06:44:54;;;;;;;14.60;9.07;;;;;;;27.11;33.19;100999.56;5033193;28;20104;-75
2022/09/23 06:47:19;;;;;;;19.98;10.13;;;;;;;27.18;32.45;100999.56;5033306;28;20079;-75
2022/09/23 06:49:47;;;;;;;46.55;13.20;;;;;;;27.16;32.95;100999.34;5032971;28;20041;-75
2022/09/23 06:52:13;;;;;;;22.67;9.55;;;;;;;27.27;31.99;101001.06;5032914;28;20029;-76
2022/09/23 06:54:39;;;;;;;62.15;13.82;;;;;;;26.57;31.18;101006.97;5031619;28;20090;-78
2022/09/23 06:57:09;;;;;;;26.65;9.13;;;;;;;26.66;32.78;100991.72;5031933;28;20026;-81
2022/09/23 06:59:35;;;;;;;19.60;9.20;;;;;;;26.39;31.99;101006.03;5031645;28;20081;-78
2022/09/23 07:02:01;;;;;;;20.40;8.15;;;;;;;27.44;32.14;101004.16;5031317;28;20037;-80
2022/09/23 07:04:28;;;;;;;16.15;7.57;;;;;;;28.07;31.24;100998.03;5015338;28;20026;-78
2022/09/23 07:06:56;;;;;;;26.75;8.25;;;;;;;28.60;30.54;101008.53;5032993;28;20116;-78
2022/09/23 07:09:22;;;;;;;12.10;6.00;;;;;;;28.87;29.90;101018.22;5015163;28;20393;-79
2022/09/23 07:11:47;;;;;;;37.05;9.85;;;;;;;29.03;29.85;101007.09;5031608;28;20033;-77
2022/09/23 07:14:15;;;;;;;42.28;11.45;;;;;;;29.14;29.63;101000.66;5031934;28;20037;-76
2022/09/23 07:16:41;;;;;;;10.43;5.82;;;;;;;28.01;29.06;101007.09;5032155;28;20029;-74
2022/09/23 07:19:11;;;;;;;17.42;6.93;;;;;;;28.49;30.00;101003.91;5035120;28;20037;-77
2022/09/23 07:21:38;;;;;;;33.20;9.30;;;;;;;28.75;29.55;101008.34;5035163;28;20065;-78
2022/09/23 07:24:04;;;;;;;29.35;10.23;;;;;;;28.80;29.93;101004.38;5036499;28;20386;-79
2022/09/23 07:26:32;;;;;;;17.08;6.43;;;;;;;28.58;30.12;101003.25;5035501;28;20056;-79
2022/09/23 07:29:04;;;;;;;11.73;5.82;;;;;;;28.13;30.28;101000.72;5035510;28;20025;-79
2022/09/23 07:31:34;;;;;;;;;;;;;;;27.52;31.04;101004.09;5019970;28;20459;-78
2022/09/23 07:34:01;;;;;;;102.25;17.73;;;;;;;27.76;30.89;101003.34;5019058;28;19913;-80
2022/09/23 07:36:27;;;;;;;8.15;5.72;;;;;;;28.07;30.58;101006.06;5035174;28;20034;-79
2022/09/23 07:39:01;;;;;;;12.70;5.90;;;;;;;28.04;30.26;101002.19;5035928;28;20057;-79
2022/09/23 07:41:27;;;;;;;9.40;5.70;;;;;;;27.94;29.94;101004.22;5032885;28;20044;-79
2022/09/23 07:43:57;;;;;;;10.40;5.03;;;;;;;27.77;30.38;100996.09;5034622;28;20029;-79
2022/09/23 07:46:30;;;;;;;67.90;12.13;;;;;;;27.62;30.87;100993.25;5035118;28;20063;-81
2022/09/23 07:49:00;;;;;;;13.30;5.55;;;;;;;27.97;31.26;101000.84;5035125;28;20034;-81
2022/09/23 07:51:32;;;;;;;25.95;6.80;;;;;;;27.93;31.22;100997.56;5019267;28;20033;-82
2022/09/23 07:53:58;;;;;;;14.40;5.57;;;;;;;27.66;31.27;100993.63;5019147;28;20021;-81
2022/09/23 07:56:39;;;;;;;11.77;5.85;;;;;;;26.12;32.30;100988.09;5018926;28;20044;-86
2022/09/23 07:59:20;;;;;;;6.55;4.78;;;;;;;26.83;32.79;100991.09;5018794;28;20394;-83
2022/09/23 08:01:49;;;;;;;9.07;4.72;;;;;;;26.69;33.24;100981.72;5018331;28;20402;-80
2022/09/23 08:04:22;;;;;;;13.15;4.50;;;;;;;27.28;32.62;100981.31;5019088;28;20021;-81
2022/09/23 08:06:50;;;;;;;9.82;4.45;;;;;;;27.91;31.73;100982.69;5018241;28;20427;-77
2022/09/23 08:09:19;;;;;;;7.07;4.72;;;;;;;28.01;30.06;100982.78;5018754;28;20040;-81
2022/09/23 08:11:45;;;;;;;15.98;5.20;;;;;;;28.23;31.71;100972.22;5020632;28;20033;-81
2022/09/23 08:14:12;;;;;;;10.70;4.97;;;;;;;28.43;30.43;100980.66;5038507;28;20034;-82
2022/09/23 08:16:40;;;;;;;8.18;3.90;;;;;;;28.50;30.98;100975.28;5002393;28;20497;-83
2022/09/23 08:19:07;;;;;;;10.32;5.30;;;;;;;28.69;30.96;100963.69;5020454;28;20390;-83
2022/09/23 08:21:33;;;;;;;6.15;4.85;;;;;;;28.82;30.54;100967.09;5035208;28;20502;-80
2022/09/23 08:24:00;;;;;;;7.28;4.68;;;;;;;28.83;30.84;100959.81;5035147;28;20021;-80
2022/09/23 08:26:25;;;;;;;13.70;4.28;;;;;;;28.79;30.98;100956.50;5037110;28;20463;-80
2022/09/23 08:28:55;;;;;;;8.50;4.63;;;;;;;28.71;29.72;100955.06;5035278;28;20026;-81
2022/09/23 08:31:21;;;;;;;7.47;4.88;;;;;;;28.50;30.20;100952.53;5035795;28;20433;-83
2022/09/23 08:33:56;;;;;;;8.02;4.25;;;;;;;28.39;30.20;100953.81;5003332;28;20025;-79
2022/09/23 08:36:24;;;;;;;7.28;4.30;;;;;;;28.27;31.01;100954.94;5019704;28;20382;-82
2022/09/23 08:38:50;;;;;;;5.45;4.13;;;;;;;28.07;30.87;100951.00;5035558;28;20029;-80
2022/09/23 08:41:44;;;;;;;7.90;3.90;;;;;;;27.66;31.16;100952.50;5018019;28;20033;-82
2022/09/23 08:44:16;;;;;;;44.78;6.70;;;;;;;27.48;31.60;100954.59;5037223;28;20113;-83
2022/09/23 08:47:06;;;;;;;30.00;5.90;;;;;;;27.19;31.65;100953.38;5036567;28;20069;-81
2022/09/23 08:50:03;;;;;;;9.30;4.10;;;;;;;26.53;31.50;100954.59;5018149;28;20033;-80
2022/09/23 08:52:54;;;;;;;7.22;3.72;;;;;;;26.15;32.17;100950.97;5035119;28;20035;-82
2022/09/23 08:55:31;;;;;;;12.55;5.47;;;;;;;26.02;33.25;100954.09;5020264;28;20061;-80
2022/09/23 08:58:25;;;;;;;12.85;4.75;;;;;;;25.96;33.43;100950.56;5032486;28;20025;-81
2022/09/23 09:01:17;;;;;;;10.75;5.13;;;;;;;25.63;34.16;100949.59;5041406;28;20021;-80
2022/09/23 09:03:56;;;;;;;10.20;3.83;;;;;;;25.19;34.90;100943.03;5033957;28;20033;-78
2022/09/23 09:06:32;;;;;;;5.95;3.65;;;;;;;24.71;35.65;100947.72;5033223;28;20045;-80
2022/09/23 09:09:01;;;;;;;5.60;3.20;;;;;;;24.28;36.05;100943.41;5034062;28;20037;-80
2022/09/23 09:11:39;;;;;;;11.45;4.15;;;;;;;24.10;36.21;100938.59;5005881;28;20037;-79
2022/09/23 09:14:50;;;;;;;5.70;2.92;;;;;;;23.76;35.72;100941.63;5036550;28;20061;-75
2022/09/23 09:17:37;;;;;;;86.05;14.90;;;;;;;23.65;38.42;100931.03;4977603;28;20042;-75
2022/09/23 09:20:22;;;;;;;11.63;3.85;;;;;;;23.55;36.65;100935.81;4976567;28;20472;-77
2022/09/23 09:22:59;;;;;;;25.42;6.70;;;;;;;23.39;38.08;100925.31;5030054;28;20332;-79
2022/09/23 09:25:46;;;;;;;80.65;16.15;;;;;;;23.32;38.85;100918.03;5035698;28;20030;-79
2022/09/23 09:28:44;;;;;;;45.45;10.32;;;;;;;23.14;38.10;100918.25;5041388;28;20054;-81
2022/09/23 09:31:27;;;;;;;18.83;4.47;;;;;;;22.87;39.59;100920.47;5036648;28;20080;-79
2022/09/23 09:34:00;;;;;;;9.73;3.30;;;;;;;22.68;38.13;100920.59;5040947;28;20364;-80
2022/09/23 09:36:54;;;;;;;12.25;3.78;;;;;;;22.45;39.56;100911.56;5038175;28;20025;-79
2022/09/23 09:39:22;;;;;;;8.05;3.28;;;;;;;21.82;41.62;100903.03;5036664;28;20102;-78
2022/09/23 09:41:50;;;;;;;3.47;2.80;;;;;;;21.73;42.29;100904.25;5035624;28;20155;-79
2022/09/23 09:44:43;;;;;;;14.48;5.13;;;;;;;21.66;44.02;100899.88;5037444;28;20030;-76
2022/09/23 09:47:31;;;;;;;13.13;4.40;;;;;;;21.64;45.98;100895.94;5019126;28;20033;-81
2022/09/23 09:50:39;;;;;;;3.75;2.95;;;;;;;21.24;42.81;100898.72;5032950;28;20060;-86
2022/09/23 09:53:34;;;;;;;4.88;3.05;;;;;;;21.19;46.08;100885.06;5021288;28;20470;-87
2022/09/23 09:56:08;;;;;;;5.57;3.03;;;;;;;20.45;46.97;100890.94;5032758;28;20038;-87
2022/09/23 09:58:51;;;;;;;15.05;4.07;;;;;;;20.28;46.10;100891.16;5035052;28;20037;-87
2022/09/23 10:01:26;;;;;;;3.08;1.90;;;;;;;19.93;48.62;100872.59;5034113;28;20024;-84
2022/09/23 10:03:54;;;;;;;4.82;2.15;;;;;;;19.68;51.35;100873.09;5034495;28;20032;-89
2022/09/23 10:06:23;;;;;;;2.65;1.88;;;;;;;19.68;46.67;100879.69;5017298;28;20017;-84
2022/09/23 10:09:01;;;;;;;3.22;1.45;;;;;;;19.59;48.25;100882.16;5016464;28;20561;-87
2022/09/23 10:11:28;;;;;;;3.92;1.70;;;;;;;19.27;51.93;100870.31;5033943;28;20028;-81
2022/09/23 10:14:20;;;;;;;8.43;1.88;;;;;;;19.22;52.25;100868.25;5034005;28;20442;-87
2022/09/23 10:16:47;;;;;;;1.23;1.13;;;;;;;19.09;50.00;100860.97;5016930;28;20018;-84
2022/09/23 10:19:27;;;;;;;13.35;3.15;;;;;;;19.20;47.92;100877.50;5000379;28;20475;-81
2022/09/23 10:22:14;;;;;;;1.17;1.02;;;;;;;19.17;50.39;100864.09;5032764;28;20383;-83
2022/09/23 10:24:40;;;;;;;3.03;1.02;;;;;;;19.18;49.20;100862.75;5031271;28;20018;-83
2022/09/23 10:27:08;;;;;;;6.97;1.02;;;;;;;19.24;48.61;100865.63;5016434;28;20032;-81
2022/09/23 10:29:50;;;;;;;30.88;4.75;;;;;;;19.25;44.49;100870.09;5000765;28;20061;-84
2022/09/23 10:32:39;;;;;;;3.05;0.80;;;;;;;19.23;39.38;100879.31;5016759;28;20462;-86
2022/09/23 10:35:13;;;;;;;13.45;2.95;;;;;;;19.21;47.33;100860.91;5016534;28;20061;-83
2022/09/23 10:37:40;;;;;;;4.22;1.05;;;;;;;19.16;43.25;100856.75;5033026;28;20025;-83
2022/09/23 10:46:46;;;;;;;18.13;2.95;;;;;;;19.44;42.10;100850.69;5033025;28;20394;-81
2022/09/23 10:49:31;;;;;;;4.93;1.20;;;;;;;19.06;44.24;100841.00;5017067;28;20497;-80
2022/09/23 10:52:24;;;;;;;4.40;1.05;;;;;;;18.95;41.92;100833.19;5034014;28;20025;-84
2022/09/23 10:55:10;;;;;;;4.18;1.10;;;;;;;18.79;43.10;100836.97;5040630;28;20048;-86
2022/09/23 10:57:58;;;;;;;5.47;1.10;;;;;;;18.73;50.15;100824.66;5044508;28;20032;-87
2022/09/23 11:00:52;;;;;;;40.40;6.82;;;;;;;18.56;45.30;100827.69;5044084;28;20093;-87
2022/09/23 11:03:39;;;;;;;12.30;1.73;;;;;;;18.24;48.91;100812.84;5008483;28;20025;-82
2022/09/23 11:06:36;;;;;;;7.55;1.13;;;;;;;18.12;44.74;100820.03;5037927;28;20029;-86
2022/09/23 11:09:30;;;;;;;2.28;1.40;;;;;;;17.99;45.20;100816.13;5038799;28;20478;-87
2022/09/23 11:12:21;;;;;;;1.75;0.82;;;;;;;17.66;45.31;100809.16;5037418;28;20021;-85
2022/09/23 11:15:01;;;;;;;3.22;0.98;;;;;;;17.34;45.21;100811.56;5038219;28;20030;-83
2022/09/23 11:17:33;;;;;;;3.25;1.45;;;;;;;17.15;45.58;100807.66;5036385;28;20029;-84
2022/09/23 11:20:08;;;;;;;2.47;0.90;;;;;;;16.88;46.33;100806.38;5036274;28;20112;-85
2022/09/23 11:22:52;;;;;;;2.90;0.80;;;;;;;16.79;46.93;100794.31;5019839;28;20043;-79
2022/09/23 11:25:33;;;;;;;2.60;0.63;;;;;;;16.80;46.87;100793.75;5036203;28;20484;-84
2022/09/23 11:28:04;;;;;;;1.00;0.60;;;;;;;16.78;46.37;100787.75;5019037;28;20059;-79
2022/09/23 11:30:59;;;;;;;6.47;1.25;;;;;;;16.81;47.30;100775.13;5035620;28;20111;-79
2022/09/23 11:33:53;;;;;;;8.27;1.15;;;;;;;16.96;52.13;100777.75;5021114;28;20056;-77
2022/09/23 11:36:34;;;;;;;1.70;0.65;;;;;;;17.07;49.28;100768.28;5036822;28;20025;-77
2022/09/23 11:39:07;;;;;;;5.40;1.00;;;;;;;17.19;50.70;100772.75;5037897;28;20034;-77
2022/09/23 11:41:37;;;;;;;9.43;1.48;;;;;;;17.23;45.55;100773.25;5038608;28;20025;-77
2022/09/23 11:44:09;;;;;;;10.98;1.95;;;;;;;17.28;53.66;100758.03;5021957;28;20067;-77
2022/09/23 11:46:52;;;;;;;5.90;1.25;;;;;;;17.37;49.83;100755.63;5021644;28;20033;-77
2022/09/23 11:49:25;;;;;;;2.63;0.90;;;;;;;17.25;46.45;100764.84;5035677;28;20028;-77